Lecanto, Florida
Current Conditions -  °F | °C
As of 10:35 AM on Friday 28 Nov 2014 (Local Time) from KCGC Reporting Station
Clear Clear  
Wind Chill: 50°   Ceiling: Unl
Heat Index: 50°   Visibility: 10mi
Dew Point: 32°   Wind: 8mph
Humidity: 50%   Direction: 80°E
Pressure: 30.37"   Gusts: NA
Location:  28.86°N, 82.49°W
Report Text: KCGC 281535Z AUTO 08007KT 10SM CLR 10/00 A3037 RMK AO2
Loading
Personal Weather Stations






























Interactive Weather Map New forecast layout! Learn more

10-Day Weather Forecast

Advertisements
Track Severe Weather on mobile